Tropic, Utah
Current Conditions -  °F | °C
As of 6:53 AM on Sunday 25 Jan 2015 (Local Time) from KBCE Reporting Station
Clear Clear  
Wind Chill: 11°   Ceiling: Unl
Heat Index: 21°   Visibility: NA
Dew Point: 20°   Wind: 8mph
Humidity: 96%   Direction: 290°WNW
Pressure: 30.4"   Gusts: NA
Location:  37.63°N, 112.08°W
Report Text: KBCE 251353Z AUTO 29007KT CLR M06/M07 A3040 RMK AO2 SLP290 I1001 T10611067 $
Loading
Personal Weather Stations






























Interactive Weather Map New forecast layout! Learn more

10-Day Weather Forecast

Advertisements
Track Severe Weather on mobile